GOSM

Ouro Sogui Airport

Matam, Senegal
METAR GOSM 180000Z 00000KT CAVOK 22/07 Q1015
Observed Flight Rules
Dec-18 @ 00:00 UTC (3 hours ago) Visual Flight Rules
Wind Visibility Clouds
Calm 10,000+ meters
  • Clear skies
Temperatures Readings
Current 22°C / 72°F
Dewpoint 7°C / 45°F
Humidity 38%
Altimeter 29.97" Hg
Pressure 1015 hPa
Elevation 17
METAR GOSM 180000Z 00000KT CAVOK 22/07 Q1015
Observed Flight Rules
Dec-18 @ 00:00 UTC
(3 hours ago)
VFR
Wind Visibility
Calm 10,000+ meters
Clouds
  • Clear skies
Temperature Dewpoint
22°C / 72°F 7°C / 45°F
Humidity Altimeter Pressure
38% 29.97" Hg 1015 hPa